createdAt,value
2022-11-27T00:02:18.271Z,14.77
2022-11-27T00:07:21.573Z,20.67
2022-11-27T00:12:24.541Z,24.13
2022-11-27T00:17:27.710Z,24.57
2022-11-27T00:22:30.539Z,20.27
2022-11-27T00:27:33.637Z,17.97
2022-11-27T00:32:36.536Z,21.33
2022-11-27T00:37:39.534Z,29.03
2022-11-27T00:42:42.448Z,28.40
2022-11-27T00:47:45.724Z,26.20
2022-11-27T00:52:48.722Z,22.03
2022-11-27T00:57:51.681Z,16.67
2022-11-27T01:02:54.760Z,14.47
2022-11-27T01:07:57.851Z,13.63
2022-11-27T01:13:00.765Z,13.00
2022-11-27T01:18:04.001Z,14.13
2022-11-27T01:23:07.838Z,15.60
2022-11-27T01:28:10.871Z,14.57
2022-11-27T01:33:14.220Z,14.90
2022-11-27T01:38:17.594Z,18.13
2022-11-27T01:43:40.929Z,14.67
2022-11-27T01:48:43.751Z,13.20
2022-11-27T01:53:47.221Z,11.80
2022-11-27T01:58:50.285Z,12.77
2022-11-27T02:03:54.222Z,10.80
2022-11-27T02:08:57.234Z,10.03
2022-11-27T02:14:15.030Z,9.90
2022-11-27T02:19:42.799Z,9.77
2022-11-27T02:25:28.125Z,11.37
2022-11-27T02:30:36.022Z,13.07
2022-11-27T02:35:44.145Z,15.07
2022-11-27T02:40:46.900Z,12.53
2022-11-27T02:45:51.655Z,12.50
2022-11-27T02:50:54.546Z,12.03
2022-11-27T02:55:58.935Z,10.93
2022-11-27T03:01:03.661Z,9.70
2022-11-27T03:06:10.105Z,9.57
2022-11-27T03:11:15.313Z,9.70
2022-11-27T03:16:30.768Z,10.57
2022-11-27T03:21:41.859Z,9.93
2022-11-27T03:26:44.798Z,10.63
2022-11-27T03:31:48.359Z,11.47
2022-11-27T03:36:51.746Z,10.70
2022-11-27T03:42:02.603Z,10.27
2022-11-27T03:47:33.476Z,10.70
2022-11-27T03:52:49.789Z,10.43
2022-11-27T03:58:00.849Z,11.63
2022-11-27T04:03:04.317Z,11.00
2022-11-27T04:08:07.505Z,11.27
2022-11-27T04:13:10.256Z,11.57
2022-11-27T04:18:13.243Z,11.77
2022-11-27T04:23:16.175Z,12.50
2022-11-27T04:28:19.195Z,12.63
2022-11-27T04:33:22.672Z,13.50
2022-11-27T04:38:25.836Z,13.13
2022-11-27T04:43:29.201Z,13.47
2022-11-27T04:48:32.261Z,13.80
2022-11-27T04:53:35.078Z,13.70
2022-11-27T04:58:38.408Z,14.37
2022-11-27T05:03:41.358Z,13.73
2022-11-27T05:08:44.410Z,13.80
2022-11-27T05:13:47.423Z,13.87
2022-11-27T05:18:50.400Z,13.80
2022-11-27T05:23:53.378Z,14.63
2022-11-27T05:28:56.260Z,15.23
2022-11-27T05:33:59.432Z,14.47
2022-11-27T05:39:03.852Z,15.17
2022-11-27T05:44:06.886Z,15.07
2022-11-27T05:49:13.042Z,15.60
2022-11-27T05:54:16.234Z,15.83
2022-11-27T05:59:19.246Z,14.93
2022-11-27T06:04:22.266Z,15.60
2022-11-27T06:09:25.249Z,14.43
2022-11-27T06:14:28.109Z,15.50
2022-11-27T06:19:32.224Z,16.17
2022-11-27T06:24:35.944Z,15.27
2022-11-27T06:29:38.983Z,14.90
2022-11-27T06:34:42.203Z,14.17
2022-11-27T06:39:45.221Z,14.17
2022-11-27T06:44:48.179Z,14.77
2022-11-27T06:49:51.093Z,14.03
2022-11-27T06:54:54.242Z,14.90
2022-11-27T06:59:57.202Z,16.37
2022-11-27T07:05:00.381Z,14.63
2022-11-27T07:10:03.395Z,15.03
2022-11-27T07:15:06.842Z,14.30
2022-11-27T07:20:10.144Z,13.73
2022-11-27T07:25:21.881Z,14.50
2022-11-27T07:30:24.829Z,13.20
2022-11-27T07:35:27.774Z,12.20
2022-11-27T07:40:30.790Z,11.90
2022-11-27T07:45:33.656Z,12.03
2022-11-27T07:50:36.892Z,12.07
2022-11-27T07:55:40.712Z,12.50
2022-11-27T08:00:43.769Z,13.00
2022-11-27T08:05:47.028Z,20.73
2022-11-27T08:10:50.027Z,12.83
2022-11-27T08:15:53.179Z,11.00
2022-11-27T08:20:56.169Z,11.13
2022-11-27T08:25:59.140Z,13.33
2022-11-27T08:31:03.570Z,11.70
2022-11-27T08:36:09.745Z,13.37
2022-11-27T08:41:14.926Z,14.07
2022-11-27T08:46:18.137Z,13.70
2022-11-27T08:51:21.246Z,13.23
2022-11-27T08:56:25.886Z,15.03
2022-11-27T09:01:30.631Z,12.20
2022-11-27T09:06:35.202Z,13.10
2022-11-27T09:11:38.388Z,14.17
2022-11-27T09:16:41.217Z,28.90
2022-11-27T09:21:44.232Z,26.47
2022-11-27T09:26:47.341Z,36.60
2022-11-27T09:31:51.210Z,47.60
2022-11-27T09:36:54.375Z,30.97
2022-11-27T09:41:59.530Z,33.23
2022-11-27T09:47:16.555Z,17.17
2022-11-27T09:52:39.572Z,34.67
2022-11-27T09:57:43.182Z,13.63
2022-11-27T10:02:46.244Z,9.63
2022-11-27T10:08:06.920Z,13.93
2022-11-27T10:13:25.471Z,22.57
2022-11-27T10:18:39.445Z,11.33
2022-11-27T10:23:54.379Z,13.37
2022-11-27T10:29:20.936Z,12.77
2022-11-27T10:34:39.172Z,12.80
2022-11-27T10:39:55.609Z,13.37
2022-11-27T10:45:02.600Z,13.60
2022-11-27T10:50:14.526Z,12.33
2022-11-27T10:55:26.098Z,13.17
2022-11-27T11:00:29.288Z,12.17
2022-11-27T11:06:12.063Z,27.10
2022-11-27T11:11:02.297Z,22.20
2022-11-27T11:16:14.678Z,15.97
2022-11-27T11:21:40.695Z,14.20
2022-11-27T11:26:52.423Z,12.73
2022-11-27T11:31:57.398Z,17.33
2022-11-27T11:37:03.784Z,12.57
2022-11-27T11:42:11.586Z,12.97
2022-11-27T11:47:18.100Z,12.30
2022-11-27T11:52:42.658Z,13.23
2022-11-27T11:58:26.883Z,14.17
2022-11-27T12:03:44.324Z,16.60
2022-11-27T12:08:53.543Z,12.77
2022-11-27T12:14:05.987Z,10.10
2022-11-27T12:19:31.211Z,13.63
2022-11-27T12:24:45.914Z,14.13
2022-11-27T12:30:03.870Z,11.77
2022-11-27T12:35:17.550Z,11.27
2022-11-27T12:40:39.083Z,11.47
2022-11-27T12:45:49.178Z,16.73
2022-11-27T12:50:56.536Z,16.03
2022-11-27T12:56:02.361Z,24.70
2022-11-27T13:01:13.086Z,20.03
2022-11-27T13:06:22.714Z,19.87
2022-11-27T13:11:29.679Z,17.00
2022-11-27T13:16:45.557Z,44.07
2022-11-27T13:21:49.866Z,12.80
2022-11-27T13:27:16.548Z,18.43
2022-11-27T13:32:22.431Z,16.70
2022-11-27T13:37:35.281Z,14.23
2022-11-27T13:42:44.131Z,14.57
2022-11-27T13:47:47.872Z,18.33
2022-11-27T13:53:00.291Z,15.40
2022-11-27T13:58:04.541Z,15.43
2022-11-27T14:03:13.269Z,15.50
2022-11-27T14:08:48.768Z,34.37
2022-11-27T14:13:52.453Z,32.60
2022-11-27T14:18:57.931Z,39.00
2022-11-27T14:24:06.333Z,38.97
2022-11-27T14:29:11.699Z,35.03
2022-11-27T14:34:48.818Z,19.63
2022-11-27T14:39:51.664Z,16.53
2022-11-27T14:45:05.307Z,15.47
2022-11-27T14:50:13.888Z,14.93
2022-11-27T14:55:17.977Z,14.33
2022-11-27T15:00:32.653Z,17.27
2022-11-27T15:05:38.824Z,16.40
2022-11-27T15:10:42.158Z,18.90
2022-11-27T15:15:45.305Z,20.60
2022-11-27T15:20:48.302Z,19.43
2022-11-27T15:26:00.156Z,20.03
2022-11-27T15:31:30.025Z,22.20
2022-11-27T15:36:41.547Z,23.50
2022-11-27T15:42:01.658Z,27.73
2022-11-27T15:47:05.887Z,25.73
2022-11-27T15:52:08.928Z,30.70
2022-11-27T15:57:12.472Z,30.43
2022-11-27T16:02:18.145Z,31.17
2022-11-27T16:07:22.275Z,30.20
2022-11-27T16:12:26.071Z,30.30
2022-11-27T16:17:29.257Z,32.97
2022-11-27T16:22:32.111Z,28.93
2022-11-27T16:27:35.225Z,31.83
2022-11-27T16:32:41.256Z,29.43
2022-11-27T16:37:47.489Z,29.23
2022-11-27T16:42:50.692Z,30.20
2022-11-27T16:47:55.282Z,31.17
2022-11-27T16:52:59.135Z,32.27
2022-11-27T16:58:02.264Z,30.03
2022-11-27T17:03:05.831Z,31.50
2022-11-27T17:08:08.882Z,33.73
2022-11-27T17:13:12.138Z,31.50
2022-11-27T17:18:17.134Z,32.67
2022-11-27T17:23:20.422Z,31.80
2022-11-27T17:28:23.870Z,34.47
2022-11-27T17:33:27.408Z,40.70
2022-11-27T17:38:30.933Z,43.57
2022-11-27T17:43:35.126Z,40.13
2022-11-27T17:48:38.706Z,42.27
2022-11-27T17:53:41.841Z,38.70
2022-11-27T17:58:45.200Z,39.63
2022-11-27T18:03:48.940Z,37.20
2022-11-27T18:08:53.096Z,36.93
2022-11-27T18:13:56.536Z,37.57
2022-11-27T18:19:02.133Z,38.50
2022-11-27T18:24:23.469Z,37.00
2022-11-27T18:29:27.840Z,35.70
2022-11-27T18:34:31.118Z,37.97
2022-11-27T18:39:35.628Z,37.70
2022-11-27T18:44:44.701Z,43.23
2022-11-27T18:49:49.078Z,40.63
2022-11-27T18:54:52.602Z,44.17
2022-11-27T18:59:55.610Z,64.50
2022-11-27T19:04:58.520Z,116.57
2022-11-27T19:10:01.436Z,44.03
2022-11-27T19:15:05.037Z,44.10
2022-11-27T19:20:08.950Z,42.23
2022-11-27T19:25:12.520Z,39.70
2022-11-27T19:30:16.047Z,51.53
2022-11-27T19:35:24.813Z,39.03
2022-11-27T19:40:31.830Z,38.53
2022-11-27T19:45:36.418Z,38.80
2022-11-27T19:50:39.508Z,37.17
2022-11-27T19:55:42.594Z,37.40
2022-11-27T20:00:45.935Z,36.70
2022-11-27T20:05:49.740Z,35.40
2022-11-27T20:10:56.493Z,35.40
2022-11-27T20:15:59.668Z,35.37
2022-11-27T20:21:07.988Z,34.37
2022-11-27T20:26:15.757Z,65.10
2022-11-27T20:31:23.257Z,50.73
2022-11-27T20:36:26.609Z,43.67
2022-11-27T20:41:30.644Z,54.20
2022-11-27T20:46:34.577Z,49.47
2022-11-27T20:51:39.371Z,42.63
2022-11-27T20:56:45.919Z,42.70
2022-11-27T21:01:49.721Z,43.43
2022-11-27T21:06:53.557Z,40.53
2022-11-27T21:11:56.697Z,39.93
2022-11-27T21:17:04.460Z,37.57
2022-11-27T21:22:08.842Z,36.63
2022-11-27T21:27:12.230Z,45.10
2022-11-27T21:32:18.236Z,62.37
2022-11-27T21:37:22.793Z,39.07
2022-11-27T21:42:26.196Z,36.07
2022-11-27T21:47:29.067Z,38.47
2022-11-27T21:52:31.961Z,37.67
2022-11-27T21:57:35.507Z,37.47
2022-11-27T22:02:39.014Z,36.93
2022-11-27T22:07:42.267Z,38.63
2022-11-27T22:12:45.173Z,42.57
2022-11-27T22:17:48.936Z,41.93
2022-11-27T22:22:52.112Z,38.47
2022-11-27T22:27:55.589Z,38.43
2022-11-27T22:32:58.764Z,40.90
2022-11-27T22:38:01.688Z,38.50
2022-11-27T22:43:04.875Z,34.07
2022-11-27T22:48:10.381Z,34.23
2022-11-27T22:53:13.456Z,35.67
2022-11-27T22:58:16.609Z,33.50
2022-11-27T23:03:19.595Z,34.37
2022-11-27T23:08:22.719Z,34.90
2022-11-27T23:13:26.073Z,34.67
2022-11-27T23:18:29.230Z,35.27
2022-11-27T23:23:32.031Z,36.20
2022-11-27T23:28:36.884Z,39.97
2022-11-27T23:33:40.363Z,40.57
2022-11-27T23:38:43.488Z,40.20
2022-11-27T23:43:46.731Z,40.50
2022-11-27T23:48:50.041Z,39.63
2022-11-27T23:53:53.694Z,40.37
2022-11-27T23:58:56.888Z,42.37
